Time;durP1;ratioP1;P1;durP2;ratioP2;P2;SDS_P1;SDS_P2;PMS_P1;PMS_P2;Temp;Humidity;BMP_temperature;BMP_pressure;BME280_temperature;BME280_humidity;BME280_pressure;Samples;Min_cycle;Max_cycle;Signal;HPM_P1;HPM_P2
2022/06/29 19:34:27;;;;;;;2.85;2.15;;;27.30;90.10;;;;;;6188482;22;1334462;-70
2022/06/29 19:36:53;;;;;;;2.50;2.30;;;27.20;90.30;;;;;;6219487;23;20157;-71
2022/06/29 19:39:19;;;;;;;2.88;2.10;;;27.20;90.60;;;;;;6221417;23;20240;-71
2022/06/29 19:41:44;;;;;;;3.33;2.10;;;27.10;90.80;;;;;;6220068;23;20178;-71
2022/06/29 19:44:15;;;;;;;2.30;2.10;;;27.00;91.00;;;;;;6220530;23;20153;-72
2022/06/29 19:46:41;;;;;;;2.50;2.30;;;26.90;91.20;;;;;;6220660;23;20187;-70
2022/06/29 19:49:07;;;;;;;3.10;2.28;;;26.80;91.40;;;;;;6221196;23;20491;-71
2022/06/29 19:51:36;;;;;;;2.88;2.40;;;26.70;91.50;;;;;;6221011;23;20164;-71
2022/06/29 19:54:02;;;;;;;3.95;2.40;;;26.70;91.70;;;;;;6219709;23;20205;-70
2022/06/29 19:56:28;;;;;;;3.00;2.10;;;26.60;91.80;;;;;;6220669;23;20167;-70
2022/06/29 19:58:54;;;;;;;3.50;2.00;;;26.50;92.00;;;;;;6221225;23;20280;-71
2022/06/29 20:01:20;;;;;;;2.55;2.10;;;26.40;92.30;;;;;;6220969;23;20172;-69
2022/06/29 20:03:46;;;;;;;14.73;11.93;;;26.30;92.60;;;;;;6221385;23;20153;-70
2022/06/29 20:06:13;;;;;;;15.32;12.45;;;26.30;92.80;;;;;;6223527;23;20177;-72
2022/06/29 20:08:42;;;;;;;9.52;8.52;;;26.20;92.90;;;;;;6228019;23;20240;-69
2022/06/29 20:11:15;;;;;;;8.80;5.72;;;26.10;93.10;;;;;;6222174;23;20164;-71
2022/06/29 20:13:47;;;;;;;4.25;3.65;;;26.00;93.40;;;;;;6225384;23;20232;-71
2022/06/29 20:16:14;;;;;;;4.00;3.22;;;26.00;93.80;;;;;;6222617;23;20156;-71
2022/06/29 20:18:41;;;;;;;2.92;2.63;;;25.90;94.00;;;;;;6225834;23;20235;-72
2022/06/29 20:21:07;;;;;;;3.85;3.17;;;25.80;94.20;;;;;;6222062;23;20594;-72
2022/06/29 20:23:34;;;;;;;3.88;3.47;;;25.70;94.40;;;;;;6221174;23;20248;-75
2022/06/29 20:26:00;;;;;;;6.63;4.40;;;25.60;94.60;;;;;;6225727;23;20161;-71
2022/06/29 20:28:25;;;;;;;5.53;3.47;;;25.60;94.80;;;;;;6223078;23;20155;-72
2022/06/29 20:30:52;;;;;;;4.55;3.25;;;25.50;95.00;;;;;;6223923;23;20241;-71
2022/06/29 20:33:17;;;;;;;4.88;2.97;;;25.40;95.30;;;;;;6224509;23;20191;-71
2022/06/29 20:35:45;;;;;;;4.18;2.90;;;25.30;95.60;;;;;;6226304;23;20152;-71
2022/06/29 20:38:13;;;;;;;3.40;2.70;;;25.30;95.80;;;;;;6222998;23;20288;-70
2022/06/29 20:40:38;;;;;;;2.90;2.60;;;25.20;96.10;;;;;;6223753;23;20160;-71
2022/06/29 20:43:06;;;;;;;2.90;2.28;;;25.20;96.40;;;;;;6220760;23;20156;-71
2022/06/29 20:45:34;;;;;;;2.78;2.28;;;25.10;96.60;;;;;;6221304;23;20184;-71
2022/06/29 20:48:02;;;;;;;3.08;2.47;;;25.00;97.10;;;;;;6221960;23;20159;-71
2022/06/29 20:50:30;;;;;;;2.70;2.50;;;25.00;97.10;;;;;;6222872;23;20160;-71
2022/06/29 20:52:56;;;;;;;2.88;2.58;;;24.90;97.60;;;;;;6223955;23;20200;-71
2022/06/29 20:55:23;;;;;;;3.58;2.90;;;24.90;97.50;;;;;;6222431;23;20167;-72
2022/06/29 20:57:51;;;;;;;3.72;3.22;;;24.80;97.70;;;;;;6223354;23;20160;-70
2022/06/29 21:00:20;;;;;;;3.90;3.50;;;24.80;97.80;;;;;;6222950;23;20149;-71
2022/06/29 21:02:48;;;;;;;6.43;3.17;;;24.70;97.90;;;;;;6219610;23;20184;-71
2022/06/29 21:05:14;;;;;;;4.60;3.47;;;24.60;98.00;;;;;;6220765;23;20176;-68
2022/06/29 21:07:40;;;;;;;4.40;3.40;;;24.50;98.20;;;;;;6219025;23;20159;-71
2022/06/29 21:10:08;;;;;;;3.53;2.90;;;24.50;98.50;;;;;;6219603;23;20153;-71
2022/06/29 21:12:36;;;;;;;4.10;3.25;;;24.40;98.90;;;;;;6220082;23;20246;-72
2022/06/29 21:15:03;;;;;;;4.57;3.15;;;24.30;99.10;;;;;;6218708;23;20144;-71
2022/06/29 21:17:31;;;;;;;3.03;2.63;;;24.30;99.50;;;;;;6219727;23;20157;-71
2022/06/29 21:19:56;;;;;;;3.17;2.88;;;24.20;99.50;;;;;;6219121;23;20193;-70
2022/06/29 21:22:22;;;;;;;3.58;2.92;;;24.10;99.80;;;;;;6220000;23;20184;-70
2022/06/29 21:24:48;;;;;;;3.85;3.20;;;24.10;99.90;;;;;;6219619;23;20157;-71
2022/06/29 21:27:16;;;;;;;5.97;3.20;;;24.10;99.90;;;;;;6220376;23;20181;-71
2022/06/29 21:29:44;;;;;;;4.53;2.97;;;24.10;99.90;;;;;;6220017;23;20233;-71
2022/06/29 21:32:14;;;;;;;3.90;2.80;;;24.10;99.90;;;;;;6219867;23;20156;-72
2022/06/29 21:34:40;;;;;;;4.63;3.22;;;24.10;99.90;;;;;;6219522;23;20215;-72
2022/06/29 21:37:08;;;;;;;4.00;3.20;;;24.10;99.90;;;;;;6220439;23;20160;-72
2022/06/29 21:39:33;;;;;;;3.67;3.03;;;24.00;99.90;;;;;;6221190;23;20160;-72
2022/06/29 21:42:02;;;;;;;3.38;3.05;;;24.00;99.90;;;;;;6221820;23;20176;-72
2022/06/29 21:44:27;;;;;;;3.35;3.05;;;23.90;99.90;;;;;;6221712;23;20172;-72
2022/06/29 21:46:53;;;;;;;3.55;2.97;;;23.90;99.90;;;;;;6220456;23;20271;-72
2022/06/29 21:52:08;;;;;;;3.25;2.60;;;23.70;99.90;;;;;;6247369;23;20207;-72
2022/06/29 21:54:36;;;;;;;3.72;3.08;;;23.70;99.90;;;;;;6218881;23;20185;-70
2022/06/29 21:57:04;;;;;;;3.20;2.90;;;23.60;99.90;;;;;;6220029;23;20156;-72
2022/06/29 21:59:35;;;;;;;3.60;2.95;;;23.60;99.90;;;;;;6222461;23;20218;-71
2022/06/29 22:02:05;;;;;;;3.85;2.95;;;23.60;99.90;;;;;;6220416;23;20192;-73
2022/06/29 22:04:31;;;;;;;3.50;2.95;;;23.50;99.90;;;;;;6220895;23;20149;-72
2022/06/29 22:06:57;;;;;;;3.33;3.03;;;23.50;99.90;;;;;;6221365;23;20159;-72
2022/06/29 22:09:22;;;;;;;3.90;3.00;;;23.50;99.90;;;;;;6220366;23;20153;-72
2022/06/29 22:11:50;;;;;;;4.60;3.22;;;23.40;99.90;;;;;;6219442;23;20160;-72
2022/06/29 22:14:18;;;;;;;4.15;3.05;;;23.40;99.90;;;;;;6224218;23;20172;-71
2022/06/29 22:16:44;;;;;;;4.15;3.13;;;23.40;99.90;;;;;;6220409;23;20160;-72
2022/06/29 22:19:11;;;;;;;3.55;2.72;;;23.40;99.90;;;;;;6221926;23;20157;-72
2022/06/29 22:21:39;;;;;;;4.40;3.05;;;23.40;99.90;;;;;;6221173;23;20180;-72
2022/06/29 22:24:05;;;;;;;3.30;3.00;;;23.40;99.90;;;;;;6221910;23;20164;-72
2022/06/29 22:26:33;;;;;;;2.90;2.63;;;23.30;99.90;;;;;;6219866;23;20220;-72
2022/06/29 22:28:58;;;;;;;3.22;2.60;;;23.30;99.90;;;;;;6222872;23;20483;-71
2022/06/29 22:31:24;;;;;;;3.85;2.47;;;23.30;99.90;;;;;;6225522;23;20182;-71
2022/06/29 22:33:50;;;;;;;3.10;2.80;;;23.30;99.90;;;;;;6220879;23;20277;-73
2022/06/29 22:36:18;;;;;;;3.42;3.13;;;23.30;99.90;;;;;;6221534;23;20156;-73
2022/06/29 22:38:46;;;;;;;4.38;3.00;;;23.30;99.90;;;;;;6226131;23;20191;-72
2022/06/29 22:41:16;;;;;;;5.93;2.97;;;23.30;99.90;;;;;;6221565;23;20231;-72
2022/06/29 22:43:44;;;;;;;3.78;3.10;;;23.30;99.90;;;;;;6220079;23;20159;-71
2022/06/29 22:46:12;;;;;;;3.47;2.80;;;23.30;99.90;;;;;;6222719;23;20203;-72
2022/06/29 22:48:37;;;;;;;3.35;2.90;;;23.20;99.90;;;;;;6222621;23;20153;-72
2022/06/29 22:51:03;;;;;;;3.40;3.03;;;23.20;99.90;;;;;;6220216;23;20167;-72
2022/06/29 22:53:31;;;;;;;3.17;2.60;;;23.20;99.90;;;;;;6222557;23;20265;-71
2022/06/29 22:55:58;;;;;;;3.88;3.00;;;23.20;99.90;;;;;;6222865;23;20175;-72
2022/06/29 22:58:24;;;;;;;3.45;2.92;;;23.20;99.90;;;;;;6219540;23;20168;-72
2022/06/29 23:00:52;;;;;;;3.95;3.15;;;23.10;99.90;;;;;;6220275;23;20177;-72
2022/06/29 23:03:18;;;;;;;3.58;2.88;;;23.10;99.90;;;;;;6221952;23;20157;-72
2022/06/29 23:05:46;;;;;;;4.57;2.80;;;23.10;99.90;;;;;;6223799;23;20149;-70
2022/06/29 23:08:14;;;;;;;3.90;2.65;;;23.00;99.90;;;;;;6225497;23;20149;-72
2022/06/29 23:13:24;;;;;;;4.35;2.90;;;23.00;99.90;;;;;;6247475;23;20191;-72
2022/06/29 23:15:52;;;;;;;3.00;2.70;;;22.90;99.90;;;;;;6221596;23;20157;-72
2022/06/29 23:18:20;;;;;;;3.65;3.10;;;22.90;99.90;;;;;;6247718;23;20176;-72
2022/06/29 23:20:45;;;;;;;3.00;2.70;;;22.90;99.90;;;;;;6220372;23;20259;-71
2022/06/29 23:23:11;;;;;;;3.95;2.83;;;22.80;99.90;;;;;;6221522;23;20179;-72
2022/06/29 23:25:37;;;;;;;3.10;2.78;;;22.80;99.90;;;;;;6221216;23;20155;-72
2022/06/29 23:28:02;;;;;;;3.08;2.78;;;22.70;99.90;;;;;;6220913;23;20152;-72
2022/06/29 23:30:28;;;;;;;3.53;3.00;;;22.70;99.90;;;;;;6220771;23;20149;-72
2022/06/29 23:32:54;;;;;;;3.22;2.78;;;22.60;99.90;;;;;;6221176;23;20156;-72
2022/06/29 23:35:22;;;;;;;3.28;2.97;;;22.60;99.90;;;;;;6220605;23;20184;-72
2022/06/29 23:37:50;;;;;;;3.90;2.75;;;22.60;99.90;;;;;;6220671;23;20206;-71
2022/06/29 23:40:15;;;;;;;3.08;2.78;;;22.50;99.90;;;;;;6220527;23;20177;-72
2022/06/29 23:42:43;;;;;;;3.30;3.00;;;22.50;99.90;;;;;;6220993;23;20184;-72
2022/06/29 23:45:11;;;;;;;3.20;2.85;;;22.50;99.90;;;;;;6220998;23;20210;-71
2022/06/29 23:47:41;;;;;;;4.50;3.40;;;22.40;99.90;;;;;;6220360;23;20258;-72
2022/06/29 23:50:07;;;;;;;3.20;2.90;;;22.40;99.90;;;;;;6220853;23;20231;-70
2022/06/29 23:52:35;;;;;;;3.65;3.13;;;22.40;99.90;;;;;;6219737;23;20265;-72
2022/06/29 23:55:00;;;;;;;3.65;2.92;;;22.30;99.90;;;;;;6221124;23;20160;-72
2022/06/29 23:57:29;;;;;;;4.43;3.35;;;22.30;99.90;;;;;;6221765;23;20157;-71
2022/06/29 23:59:55;;;;;;;4.50;3.30;;;22.30;99.90;;;;;;6221652;23;20188;-72
